createdAt,value
2023-04-20T00:02:50.631Z,98544.56
2023-04-20T00:05:53.461Z,98539.13
2023-04-20T00:08:55.982Z,98534.75
2023-04-20T00:11:59.830Z,98540.19
2023-04-20T00:15:02.249Z,98537.28
2023-04-20T00:18:05.050Z,98530.13
2023-04-20T00:21:07.677Z,98528.06
2023-04-20T00:24:10.428Z,98526.81
2023-04-20T00:27:14.273Z,98524.13
2023-04-20T00:30:16.670Z,98515.16
2023-04-20T00:33:19.333Z,98511.41
2023-04-20T00:36:21.905Z,98506.03
2023-04-20T00:39:24.488Z,98505.00
2023-04-20T00:42:28.349Z,98496.41
2023-04-20T00:45:30.763Z,98498.53
2023-04-20T00:48:33.225Z,98499.25
2023-04-20T00:51:36.766Z,98499.03
2023-04-20T00:54:40.038Z,98492.25
2023-04-20T00:57:44.252Z,98490.97
2023-04-20T01:00:46.759Z,98485.03
2023-04-20T01:03:49.597Z,98480.16
2023-04-20T01:06:52.264Z,98474.28
2023-04-20T01:09:54.738Z,98472.19
2023-04-20T01:12:58.627Z,98460.59
2023-04-20T01:16:01.279Z,98454.72
2023-04-20T01:19:04.283Z,98454.50
2023-04-20T01:22:07.930Z,98456.69
2023-04-20T01:25:12.029Z,98444.59
2023-04-20T01:28:14.584Z,98442.16
2023-04-20T01:31:17.215Z,98428.44
2023-04-20T01:34:19.868Z,98427.63
2023-04-20T01:37:22.417Z,98434.16
2023-04-20T01:40:26.299Z,98421.19
2023-04-20T01:43:28.887Z,98415.25
2023-04-20T01:46:31.504Z,98420.66
2023-04-20T01:49:34.041Z,98407.69
2023-04-20T01:52:36.609Z,98414.50
2023-04-20T01:55:41.109Z,98408.34
2023-04-20T01:58:43.599Z,98408.88
2023-04-20T02:01:46.120Z,98406.22
2023-04-20T02:04:48.740Z,98403.50
2023-04-20T02:07:51.322Z,98393.25
2023-04-20T02:10:55.284Z,98394.91
2023-04-20T02:13:57.817Z,98385.25
2023-04-20T02:17:00.910Z,98390.06
2023-04-20T02:20:05.815Z,98389.75
2023-04-20T02:23:08.379Z,98377.91
2023-04-20T02:26:12.205Z,98381.44
2023-04-20T02:29:14.568Z,98377.41
2023-04-20T02:32:17.126Z,98368.84
2023-04-20T02:35:19.853Z,98371.81
2023-04-20T02:38:22.353Z,98377.47
2023-04-20T02:41:26.259Z,98368.53
2023-04-20T02:44:28.992Z,98365.88
2023-04-20T02:47:31.676Z,98369.16
2023-04-20T02:50:35.072Z,98369.22
2023-04-20T02:53:37.601Z,98371.09
2023-04-20T02:56:41.529Z,98360.31
2023-04-20T02:59:44.197Z,98363.84
2023-04-20T03:02:46.892Z,98362.53
2023-04-20T03:05:49.488Z,98362.78
2023-04-20T03:08:51.986Z,98353.91
2023-04-20T03:12:40.857Z,98353.38
2023-04-20T03:15:47.601Z,98352.00
2023-04-20T03:26:11.034Z,98337.47
2023-04-20T03:29:55.880Z,98349.59
2023-04-20T03:33:14.452Z,98343.16
2023-04-20T03:36:45.797Z,98338.03
2023-04-20T03:39:48.590Z,98331.31
2023-04-20T03:42:51.279Z,98335.09
2023-04-20T03:45:56.459Z,98330.22
2023-04-20T03:48:59.017Z,98328.63
2023-04-20T03:52:01.575Z,98327.31
2023-04-20T03:55:04.565Z,98320.31
2023-04-20T03:58:07.626Z,98324.88
2023-04-20T04:01:13.227Z,98327.84
2023-04-20T04:04:15.994Z,98328.09
2023-04-20T04:07:18.675Z,98330.28
2023-04-20T04:10:21.351Z,98327.53
2023-04-20T04:13:23.877Z,98319.22
2023-04-20T04:16:27.795Z,98329.47
2023-04-20T04:19:30.402Z,98324.91
2023-04-20T04:22:33.153Z,98318.72
2023-04-20T04:25:38.975Z,98318.47
2023-04-20T04:28:41.956Z,98319.25
2023-04-20T04:31:45.977Z,98328.13
2023-04-20T04:34:48.820Z,98318.66
2023-04-20T04:37:52.643Z,98323.25
2023-04-20T04:40:56.419Z,98328.34
2023-04-20T04:43:59.395Z,98329.94
2023-04-20T04:47:05.804Z,98329.44
2023-04-20T04:50:10.360Z,98319.72
2023-04-20T04:53:12.905Z,98324.56
2023-04-20T04:56:16.000Z,98316.94
2023-04-20T04:59:18.960Z,98323.06
2023-04-20T05:02:23.160Z,98318.16
2023-04-20T05:05:26.601Z,98324.34
2023-04-20T05:08:29.192Z,98326.44
2023-04-20T05:11:32.732Z,98332.31
2023-04-20T05:14:35.359Z,98331.16
2023-04-20T05:17:39.479Z,98333.00
2023-04-20T05:20:42.413Z,98336.19
2023-04-20T05:23:45.122Z,98332.53
2023-04-20T05:26:47.787Z,98338.13
2023-04-20T05:29:50.854Z,98335.94
2023-04-20T05:32:55.101Z,98339.94
2023-04-20T05:35:58.012Z,98333.88
2023-04-20T05:39:00.856Z,98331.06
2023-04-20T05:42:03.457Z,98333.94
2023-04-20T05:45:07.157Z,98334.66
2023-04-20T05:48:11.635Z,98328.56
2023-04-20T05:51:14.296Z,98344.03
2023-04-20T05:54:16.870Z,98338.28
2023-04-20T05:57:19.513Z,98333.22
2023-04-20T06:00:25.768Z,98334.59
2023-04-20T06:03:30.483Z,98334.47
2023-04-20T06:06:33.370Z,98336.31
2023-04-20T06:09:35.904Z,98327.50
2023-04-20T06:12:38.618Z,98328.41
2023-04-20T06:15:41.388Z,98327.69
2023-04-20T06:18:45.793Z,98319.28
2023-04-20T06:21:48.475Z,98322.91
2023-04-20T06:24:51.382Z,98320.03
2023-04-20T06:27:54.170Z,98322.59
2023-04-20T06:30:56.970Z,98318.69
2023-04-20T06:37:27.943Z,98314.97
2023-04-20T06:40:30.970Z,98318.53
2023-04-20T06:43:33.638Z,98312.19
2023-04-20T06:46:36.488Z,98315.69
2023-04-20T06:49:40.381Z,98308.34
2023-04-20T06:52:43.019Z,98313.56
2023-04-20T06:55:45.539Z,98310.09
2023-04-20T06:58:48.789Z,98305.78
2023-04-20T07:01:52.173Z,98307.38
2023-04-20T07:05:01.778Z,98302.41
2023-04-20T07:08:04.728Z,98298.25
2023-04-20T07:11:07.391Z,98299.47
2023-04-20T07:14:10.154Z,98294.66
2023-04-20T07:17:12.930Z,98299.66
2023-04-20T07:20:16.918Z,98294.84
2023-04-20T07:23:20.281Z,98299.31
2023-04-20T07:26:23.154Z,98298.94
2023-04-20T07:29:25.773Z,98296.41
2023-04-20T07:32:28.571Z,98304.88
2023-04-20T07:35:32.863Z,98302.63
2023-04-20T07:38:35.564Z,98294.56
2023-04-20T07:41:38.171Z,98289.03
2023-04-20T07:44:41.020Z,98293.34
2023-04-20T07:47:47.187Z,98286.34
2023-04-20T07:50:51.336Z,98286.56
2023-04-20T07:53:54.009Z,98290.50
2023-04-20T07:56:56.758Z,98290.84
2023-04-20T07:59:59.469Z,98287.13
2023-04-20T08:03:02.192Z,98293.13
2023-04-20T08:06:06.665Z,98303.53
2023-04-20T08:09:13.469Z,98297.06
2023-04-20T08:12:16.084Z,98289.00
2023-04-20T08:15:18.788Z,98289.66
2023-04-20T08:18:21.589Z,98288.31
2023-04-20T08:21:26.564Z,98290.47
2023-04-20T08:24:29.310Z,98291.69
2023-04-20T08:27:32.111Z,98290.47
2023-04-20T08:30:34.886Z,98283.97
2023-04-20T08:33:37.513Z,98289.59
2023-04-20T08:36:41.651Z,98285.78
2023-04-20T08:39:44.175Z,98288.50
2023-04-20T08:42:46.942Z,98282.28
2023-04-20T08:45:51.729Z,98273.94
2023-04-20T08:48:55.778Z,98278.25
2023-04-20T08:51:59.688Z,98284.19
2023-04-20T08:55:02.610Z,98284.03
2023-04-20T08:58:05.637Z,98282.88
2023-04-20T09:01:08.491Z,98286.25
2023-04-20T09:04:19.125Z,98283.22
2023-04-20T09:07:23.562Z,98283.69
2023-04-20T09:10:27.026Z,98283.66
2023-04-20T09:13:29.902Z,98283.94
2023-04-20T09:16:32.958Z,98277.56
2023-04-20T09:19:35.984Z,98277.91
2023-04-20T09:22:40.167Z,98273.88
2023-04-20T09:25:43.573Z,98270.47
2023-04-20T09:28:46.226Z,98276.22
2023-04-20T09:31:49.538Z,98269.56
2023-04-20T09:34:52.352Z,98276.25
2023-04-20T09:37:56.386Z,98270.09
2023-04-20T09:41:01.785Z,98265.53
2023-04-20T09:44:04.777Z,98262.56
2023-04-20T09:47:07.655Z,98260.41
2023-04-20T09:50:24.635Z,98261.53
2023-04-20T09:53:32.088Z,98267.31
2023-04-20T09:56:36.172Z,98262.03
2023-04-20T09:59:39.872Z,98263.81
2023-04-20T10:02:44.035Z,98264.72
2023-04-20T10:05:46.837Z,98262.34
2023-04-20T10:08:51.961Z,98261.53
2023-04-20T10:11:56.211Z,98259.44
2023-04-20T10:15:01.371Z,98255.75
2023-04-20T10:18:04.058Z,98264.88
2023-04-20T10:21:09.791Z,98246.66
2023-04-20T10:24:13.852Z,98245.25
2023-04-20T10:27:20.307Z,98247.97
2023-04-20T10:30:24.281Z,98242.97
2023-04-20T10:33:26.879Z,98247.28
2023-04-20T10:36:32.208Z,98245.47
2023-04-20T10:39:37.775Z,98239.44
2023-04-20T10:42:44.340Z,98233.72
2023-04-20T10:45:47.009Z,98231.09
2023-04-20T10:48:57.138Z,98232.56
2023-04-20T10:51:59.971Z,98216.63
2023-04-20T10:55:05.428Z,98207.69
2023-04-20T10:58:08.094Z,98201.78
2023-04-20T11:01:11.022Z,98192.31
2023-04-20T11:04:16.226Z,98192.41
2023-04-20T11:07:20.938Z,98182.88
2023-04-20T11:10:26.696Z,98186.13
2023-04-20T11:13:30.770Z,98182.00
2023-04-20T11:16:46.859Z,98170.69
2023-04-20T11:19:53.378Z,98172.91
2023-04-20T11:22:58.623Z,98175.34
2023-04-20T11:26:02.651Z,98160.81
2023-04-20T11:29:05.403Z,98167.84
2023-04-20T11:32:10.204Z,98161.84
2023-04-20T11:35:13.450Z,98169.09
2023-04-20T11:38:18.812Z,98179.31
2023-04-20T11:41:23.181Z,98176.69
2023-04-20T11:44:26.356Z,98175.00
2023-04-20T11:47:28.935Z,98165.44
2023-04-20T11:50:31.544Z,98173.50
2023-04-20T11:53:34.756Z,98172.31
2023-04-20T11:56:38.887Z,98182.75
2023-04-20T11:59:42.906Z,98175.28
2023-04-20T12:02:45.710Z,98177.88
2023-04-20T12:05:48.687Z,98179.38
2023-04-20T12:08:51.855Z,98177.75
2023-04-20T12:11:55.909Z,98179.00
2023-04-20T12:14:58.788Z,98177.00
2023-04-20T12:18:01.479Z,98176.63
2023-04-20T12:21:04.271Z,98169.91
2023-04-20T12:24:07.954Z,98175.94
2023-04-20T12:27:11.829Z,98172.06
2023-04-20T12:30:16.577Z,98168.88
2023-04-20T12:33:19.237Z,98165.50
2023-04-20T12:36:21.930Z,98158.28
2023-04-20T12:39:24.994Z,98161.69
2023-04-20T12:42:28.961Z,98157.16
2023-04-20T12:45:31.963Z,98154.50
2023-04-20T12:48:34.508Z,98157.75
2023-04-20T12:51:37.704Z,98163.88
2023-04-20T12:54:42.108Z,98149.78
2023-04-20T12:57:47.344Z,98138.72
2023-04-20T13:00:50.081Z,98125.66
2023-04-20T13:03:52.940Z,98127.44
2023-04-20T13:06:55.784Z,98126.97
2023-04-20T13:09:58.680Z,98138.28
2023-04-20T13:13:02.793Z,98142.75
2023-04-20T13:16:05.837Z,98157.56
2023-04-20T13:19:08.408Z,98153.22
2023-04-20T13:22:13.243Z,98146.63
2023-04-20T13:25:18.520Z,98149.97
2023-04-20T13:28:22.481Z,98155.63
2023-04-20T13:31:25.222Z,98153.44
2023-04-20T13:34:27.920Z,98146.09
2023-04-20T13:37:33.151Z,98150.19
2023-04-20T13:40:35.787Z,98139.16
2023-04-20T13:43:39.698Z,98138.66
2023-04-20T13:46:42.994Z,98134.16
2023-04-20T13:49:45.654Z,98140.91
2023-04-20T13:52:48.203Z,98133.19
2023-04-20T13:55:51.057Z,98130.91
2023-04-20T13:58:55.421Z,98125.03
2023-04-20T14:01:58.206Z,98120.13
2023-04-20T14:05:00.842Z,98118.41
2023-04-20T14:08:03.806Z,98123.28
2023-04-20T14:11:06.747Z,98123.22
2023-04-20T14:14:10.903Z,98117.56
2023-04-20T14:17:13.801Z,98111.75
2023-04-20T14:20:16.868Z,98112.94
2023-04-20T14:23:19.501Z,98120.91
2023-04-20T14:26:22.071Z,98121.84
2023-04-20T14:29:26.077Z,98129.69
2023-04-20T14:32:28.642Z,98123.13
2023-04-20T14:35:31.339Z,98137.31
2023-04-20T14:38:33.897Z,98144.09
2023-04-20T14:41:36.792Z,98134.38
2023-04-20T14:44:40.700Z,98125.16
2023-04-20T14:47:43.867Z,98134.22
2023-04-20T14:50:46.442Z,98138.09
2023-04-20T14:53:49.017Z,98133.41
2023-04-20T14:56:51.854Z,98136.44
2023-04-20T14:59:55.763Z,98147.13
2023-04-20T15:02:59.495Z,98153.91
2023-04-20T15:06:03.547Z,98160.81
2023-04-20T15:09:06.273Z,98167.56
2023-04-20T15:12:09.123Z,98157.28
2023-04-20T15:15:13.202Z,98151.84
2023-04-20T15:18:15.838Z,98148.38
2023-04-20T15:21:18.472Z,98147.94
2023-04-20T15:24:21.054Z,98150.50
2023-04-20T15:27:23.810Z,98150.53
2023-04-20T15:30:27.752Z,98160.50
2023-04-20T15:33:30.366Z,98155.50
2023-04-20T15:36:33.048Z,98154.88
2023-04-20T15:39:35.637Z,98150.41
2023-04-20T15:42:38.305Z,98154.03
2023-04-20T15:45:44.212Z,98159.28
2023-04-20T15:48:47.374Z,98162.63
2023-04-20T15:51:49.860Z,98156.38
2023-04-20T15:54:52.452Z,98138.59
2023-04-20T15:57:58.054Z,98129.78
2023-04-20T16:01:02.157Z,98123.03
2023-04-20T16:04:05.182Z,98123.56
2023-04-20T16:07:08.866Z,98125.47
2023-04-20T16:10:12.043Z,98136.22
2023-04-20T16:13:14.600Z,98137.63
2023-04-20T16:16:18.898Z,98139.72
2023-04-20T16:19:21.702Z,98136.03
2023-04-20T16:22:24.755Z,98141.66
2023-04-20T16:25:28.391Z,98149.78
2023-04-20T16:28:31.013Z,98154.91
2023-04-20T16:31:36.663Z,98158.53
2023-04-20T16:34:39.458Z,98157.16
2023-04-20T16:37:41.959Z,98160.09
2023-04-20T16:40:44.748Z,98151.72
2023-04-20T16:43:47.563Z,98156.88
2023-04-20T16:46:52.190Z,98156.13
2023-04-20T16:49:54.851Z,98150.34
2023-04-20T16:52:57.456Z,98154.81
2023-04-20T16:56:00.085Z,98166.06
2023-04-20T16:59:03.173Z,98171.22
2023-04-20T17:02:07.751Z,98175.19
2023-04-20T17:05:11.250Z,98182.25
2023-04-20T17:08:14.052Z,98194.28
2023-04-20T17:11:19.257Z,98199.25
2023-04-20T17:14:22.216Z,98196.06
2023-04-20T17:17:28.252Z,98192.66
2023-04-20T17:20:31.390Z,98183.69
2023-04-20T17:23:35.161Z,98181.94
2023-04-20T17:26:37.758Z,98168.31
2023-04-20T17:29:42.981Z,98178.41
2023-04-20T17:32:47.211Z,98180.34
2023-04-20T17:35:49.933Z,98184.84
2023-04-20T17:38:52.517Z,98189.16
2023-04-20T17:41:55.629Z,98197.50
2023-04-20T17:44:58.460Z,98192.84
2023-04-20T17:48:02.522Z,98186.13
2023-04-20T17:51:05.336Z,98183.56
2023-04-20T17:54:09.593Z,98189.50
2023-04-20T17:57:14.032Z,98187.09
2023-04-20T18:00:18.671Z,98187.09
2023-04-20T18:03:22.881Z,98191.56
2023-04-20T18:06:25.994Z,98194.94
2023-04-20T18:09:28.724Z,98176.66
2023-04-20T18:12:31.546Z,98165.44
2023-04-20T18:15:34.043Z,98173.16
2023-04-20T18:18:38.137Z,98174.28
2023-04-20T18:21:40.911Z,98190.13
2023-04-20T18:24:43.545Z,98193.66
2023-04-20T18:27:46.192Z,98211.13
2023-04-20T18:30:48.929Z,98221.22
2023-04-20T18:33:52.798Z,98206.47
2023-04-20T18:36:55.469Z,98192.88
2023-04-20T18:39:59.163Z,98180.03
2023-04-20T18:43:01.516Z,98194.94
2023-04-20T18:46:04.160Z,98199.09
2023-04-20T18:49:08.132Z,98204.41
2023-04-20T18:52:10.765Z,98204.56
2023-04-20T18:55:13.304Z,98217.22
2023-04-20T18:58:15.767Z,98225.38
2023-04-20T19:01:18.473Z,98221.38
2023-04-20T19:04:22.945Z,98220.91
2023-04-20T19:07:26.059Z,98222.81
2023-04-20T19:10:28.671Z,98228.28
2023-04-20T19:13:31.208Z,98230.03
2023-04-20T19:16:34.655Z,98239.16
2023-04-20T19:19:38.735Z,98231.16
2023-04-20T19:22:41.291Z,98226.97
2023-04-20T19:25:43.946Z,98226.81
2023-04-20T19:28:46.933Z,98245.56
2023-04-20T19:31:49.457Z,98259.81
2023-04-20T19:34:57.216Z,98252.31
2023-04-20T19:38:00.200Z,98263.19
2023-04-20T19:41:03.013Z,98268.78
2023-04-20T19:44:06.347Z,98263.34
2023-04-20T19:47:09.228Z,98256.78
2023-04-20T19:50:13.928Z,98254.06
2023-04-20T19:53:16.535Z,98262.38
2023-04-20T19:56:19.588Z,98259.50
2023-04-20T19:59:23.362Z,98257.09
2023-04-20T20:02:26.294Z,98239.31
2023-04-20T20:05:30.279Z,98249.72
2023-04-20T20:08:33.040Z,98265.09
2023-04-20T20:11:36.085Z,98257.25
2023-04-20T20:14:38.854Z,98264.47
2023-04-20T20:17:41.703Z,98265.56
2023-04-20T20:20:45.745Z,98261.09
2023-04-20T20:23:48.294Z,98262.69
2023-04-20T20:26:50.832Z,98261.56
2023-04-20T20:29:53.372Z,98254.22
2023-04-20T20:32:58.768Z,98243.81
2023-04-20T20:36:04.247Z,98244.94
2023-04-20T20:39:07.748Z,98245.88
2023-04-20T20:42:10.322Z,98252.59
2023-04-20T20:45:13.909Z,98252.28
2023-04-20T20:48:16.584Z,98256.28
2023-04-20T20:51:20.405Z,98252.59
2023-04-20T20:54:23.509Z,98249.56
2023-04-20T20:57:26.135Z,98252.13
2023-04-20T21:00:28.939Z,98250.03
2023-04-20T21:03:31.757Z,98249.41
2023-04-20T21:06:36.356Z,98241.72
2023-04-20T21:09:39.700Z,98243.78
2023-04-20T21:12:42.911Z,98238.19
2023-04-20T21:15:45.627Z,98237.72
2023-04-20T21:18:48.278Z,98227.63
2023-04-20T21:21:52.367Z,98228.44
2023-04-20T21:24:54.907Z,98225.38
2023-04-20T21:27:57.521Z,98224.72
2023-04-20T21:31:00.248Z,98220.56
2023-04-20T21:34:02.789Z,98229.19
2023-04-20T21:37:07.086Z,98218.75
2023-04-20T21:40:11.038Z,98224.50
2023-04-20T21:43:13.896Z,98226.91
2023-04-20T21:46:16.762Z,98217.88
2023-04-20T21:49:19.710Z,98219.94
2023-04-20T21:52:24.016Z,98217.47
2023-04-20T21:55:26.457Z,98226.16
2023-04-20T21:58:29.039Z,98226.69
2023-04-20T22:01:31.594Z,98217.44
2023-04-20T22:04:34.392Z,98221.44
2023-04-20T22:07:38.463Z,98215.97
2023-04-20T22:10:41.007Z,98217.41
2023-04-20T22:13:44.530Z,98221.19
2023-04-20T22:16:47.884Z,98214.50
2023-04-20T22:19:50.829Z,98217.94
2023-04-20T22:22:54.838Z,98225.88
2023-04-20T22:25:57.540Z,98219.16
2023-04-20T22:29:00.369Z,98235.16
2023-04-20T22:32:03.089Z,98233.81
2023-04-20T22:35:06.559Z,98232.25
2023-04-20T22:38:10.383Z,98233.84
2023-04-20T22:41:13.890Z,98234.66
2023-04-20T22:44:17.869Z,98244.78
2023-04-20T22:47:20.559Z,98249.41
2023-04-20T22:50:23.290Z,98249.19
2023-04-20T22:53:27.549Z,98252.47
2023-04-20T22:56:30.305Z,98257.50
2023-04-20T22:59:32.878Z,98261.91
2023-04-20T23:02:35.618Z,98264.22
2023-04-20T23:05:39.057Z,98260.00
2023-04-20T23:08:42.971Z,98263.53
2023-04-20T23:11:47.068Z,98257.78
2023-04-20T23:14:50.774Z,98245.84
2023-04-20T23:17:57.300Z,98238.81
2023-04-20T23:20:59.918Z,98246.47
2023-04-20T23:24:04.077Z,98253.91
2023-04-20T23:27:06.694Z,98244.97
2023-04-20T23:30:10.331Z,98248.56
2023-04-20T23:33:12.986Z,98240.50
2023-04-20T23:36:15.800Z,98242.44
2023-04-20T23:39:20.301Z,98242.94
2023-04-20T23:42:22.994Z,98228.78
2023-04-20T23:45:25.610Z,98229.81
2023-04-20T23:48:28.162Z,98235.53
2023-04-20T23:51:30.811Z,98224.16
2023-04-20T23:54:34.836Z,98222.06
2023-04-20T23:57:37.321Z,98224.38
